x

La Perouse Bank (46206) Wave Buoy

11:00 - Sat 18th Apr 2015 All times are PDT. -7 hours from GMT.

  • Sig Wave height 6.6ft
  • Peak Period 12s
  • Wind
    7mph, 9mph gusts
  • Sea Temp 52°f
  • Luft Temp 51°f
  • Sea Pressure 1029.7mb
  • La Perouse Bank
  • La Perouse Bank

More Historic Weather Station data

Upgrade to MSW Pro to gain access to the past 30 days of data for over 8000 Wavebouys and Weather Stations around the globe.

Join Pro

Comparision Forecast

View Surf forecast
   
Sa 04/18 11:00 6.5ft 12s 7 9 mph 1029.7mb 52f 51f
10:00 7ft 12s 4 7 mph 1029.8mb 52f 51f
9:00 7ft 10s 4 7 mph 1029.7mb 52f 51f
8:00 7.5ft 14s 7 9 mph 1029.4mb 51f 51f
7:00 8ft 12s 4 7 mph 1029.2mb 51f 51f
6:00 8ft 12s 7 11 mph 1028.5mb 51f 51f
5:00 9ft 12s 16 18 mph 1028.1mb 51f 51f
4:00 8.5ft 13s 16 22 mph 1027.9mb 51f 51f
3:00 9ft 11s 13 16 mph 1027.5mb 51f 51f
2:00 9ft 12s 16 18 mph 1027.5mb 51f 51f
1:00 10ft 8s 18 22 mph 1027.7mb 51f 52f
12:00 10ft 13s 20 25 mph 1027.6mb 51f 52f
Fr 04/17 11:00 10ft 8s 22 27 mph 1027.1mb 51f 52f
10:00 10.5ft 10s 25 31 mph 1027mb 51f 52f
9:00 10.5ft 14s 25 29 mph 1026.8mb 51f 52f
8:00 10.5ft 13s 25 29 mph 1026.2mb 52f 51f
7:00 10ft 12s 25 31 mph 1026.1mb 52f 51f
6:00 11ft 15s 25 29 mph 1026.5mb 52f 51f
5:00 11ft 14s 27 31 mph 1026.7mb 51f 51f
4:00 11ft 12s 27 34 mph 1026.9mb 51f 51f
3:00 10.5ft 14s 27 34 mph 1027mb 51f 51f
2:00 9.5ft 14s 25 31 mph 1027.5mb 51f 51f
1:00 9ft 14s 22 27 mph 1027.4mb 52f 51f
12:00 9ft 12s 20 25 mph 1027.5mb 52f 51f
11:00 9ft 15s 16 20 mph 1027.1mb 51f 51f
10:00 8.5ft 13s 16 20 mph 1026.7mb 51f 50f
9:00 9ft 12s 4 9 mph 1026.4mb 51f 51f
8:00 9ft 14s 2 4 mph 1026.1mb 51f 51f
7:00 8.5ft 15s 2 4 mph 1025.7mb 51f 51f
6:00 9.5ft 16s 4 7 mph 1025.4mb 51f 51f
5:00 9.5ft 14s 4 9 mph 1025.5mb 51f 51f
4:00 10.5ft 14s 7 9 mph 1025.6mb 52f 51f
3:00 11ft 12s 9 13 mph 1025.7mb 51f 51f
2:00 9.5ft 14s 13 18 mph 1025.9mb 51f 51f
1:00 11ft 15s 9 11 mph 1025.3mb 51f 51f
12:00 11ft 14s 9 13 mph 1025.2mb 52f 51f
Do 04/16 11:00 10.5ft 15s 7 11 mph 1025.3mb 51f 51f
10:00 11.5ft 13s 9 13 mph 1025.4mb 51f 51f
9:00 12ft 14s 11 16 mph 1025.4mb 51f 51f
8:00 11.5ft 12s 11 16 mph 1025.5mb 51f 51f
7:00 14ft 14s 11 16 mph 1025.8mb 51f 52f
6:00 12.5ft 15s 9 13 mph 1026.3mb 52f 52f
5:00 11.5ft 14s 7 9 mph 1027.1mb 52f 52f
4:00 11ft 17s 4 7 mph 1027.9mb 52f 53f
3:00 12ft 16s 2 7 mph 1028.7mb 52f 52f
2:00 11ft 18s 2 7 mph 1029.1mb 52f 53f
1:00 11ft 16s 4 7 mph 1029.3mb 52f 52f
12:00 11.5ft 17s 4 7 mph 1029.7mb 51f 51f
11:00 11ft 17s 9 13 mph 1029.7mb 51f 51f
10:00 10.5ft 14s 9 13 mph 1029.9mb 51f 50f
9:00 10.5ft 18s 9 11 mph 1030mb 51f 51f
8:00 11ft 11s 9 13 mph 1030mb 51f 51f
7:00 10.5ft 12s 9 11 mph 1030mb 51f 51f
6:00 10ft 12s 9 13 mph 1030.2mb 51f 51f
5:00 9ft 12s 9 11 mph 1030.5mb 51f 51f
4:00 9ft 12s 9 11 mph 1030.6mb 51f 51f
3:00 9ft 12s 9 11 mph 1030.8mb 51f 51f
2:00 9ft 11s 9 11 mph 1031.2mb 51f 51f
1:00 8.5ft 12s 9 11 mph 1031.7mb 51f 51f
12:00 8ft 12s 9 13 mph 1031.7mb 51f 51f
Mi 04/15 11:00 8ft 13s 9 13 mph 1031.8mb 51f 51f
10:00 8.5ft 13s 9 11 mph 1032.2mb 51f 51f
9:00 8.5ft 12s 9 11 mph 1032.2mb 51f 51f
8:00 8ft 11s 9 13 mph 1032mb 51f 50f
7:00 7ft 12s 11 13 mph 1032.2mb 51f 50f
6:00 7.5ft 11s 13 16 mph 1032.7mb 51f 50f
5:00 7ft 11s 13 16 mph 1033.2mb 51f 50f
4:00 7ft 11s 13 16 mph 1033.7mb 51f 49f
3:00 6ft 10s 16 18 mph 1033.9mb 51f 50f
2:00 6ft 11s 13 18 mph 1033.9mb 51f 50f
1:00 6ft 11s 13 16 mph 1034.1mb 51f 48f
12:00 6ft 11s 16 18 mph 1034mb 51f 49f
11:00 6ft 12s 16 18 mph 1033.7mb 51f 49f
10:00 6.5ft 11s 13 18 mph 1033.5mb 51f 49f
9:00 6ft 11s 13 16 mph 1033.4mb 51f 49f
8:00 6ft 11s 9 11 mph 1033.2mb 51f 49f
7:00 7ft 12s 9 11 mph 1032.9mb 51f 49f
6:00 8ft 11s 4 7 mph 1032.6mb 51f 48f
5:00 8.5ft 11s 2 4 mph 1032.4mb 51f 48f
4:00 9ft 11s 2 4 mph 1032.3mb 51f 48f
3:00 8.5ft 11s 4 7 mph 1031.9mb 51f 48f
2:00 9ft 11s 7 9 mph 1032mb 51f 48f
1:00 9ft 11s 7 11 mph 1032mb 51f 48f
12:00 9ft 10s 13 16 mph 1031.5mb 51f 48f
Di 04/14 11:00 8ft 11s 11 13 mph 1031.2mb 50f 48f
10:00 8ft 11s 13 16 mph 1031mb 51f 48f
9:00 7.5ft 11s 13 18 mph 1030.6mb 51f 48f
8:00 7ft 11s 13 18 mph 1029.9mb 51f 48f